createdAt,value
2018-07-06T00:01:13.150Z,16.60
2018-07-06T00:03:52.804Z,16.60
2018-07-06T00:06:32.490Z,16.50
2018-07-06T00:09:12.011Z,16.50
2018-07-06T00:11:51.888Z,16.50
2018-07-06T00:14:31.523Z,16.50
2018-07-06T00:17:11.160Z,16.40
2018-07-06T00:19:51.045Z,16.30
2018-07-06T00:22:30.828Z,16.30
2018-07-06T00:25:10.540Z,16.30
2018-07-06T00:27:50.417Z,16.20
2018-07-06T00:30:30.215Z,16.20
2018-07-06T00:33:10.053Z,16.20
2018-07-06T00:38:23.508Z,16.20
2018-07-06T00:41:03.071Z,16.30
2018-07-06T00:43:42.742Z,16.30
2018-07-06T00:46:22.443Z,16.40
2018-07-06T00:49:02.177Z,16.40
2018-07-06T00:51:41.812Z,16.30
2018-07-06T00:54:21.316Z,16.40
2018-07-06T00:57:01.228Z,16.40
2018-07-06T00:59:40.862Z,16.40
2018-07-06T01:02:20.368Z,16.30
2018-07-06T01:05:00.204Z,16.20
2018-07-06T01:07:39.954Z,16.30
2018-07-06T01:10:19.653Z,16.30
2018-07-06T01:13:01.668Z,16.30
2018-07-06T01:15:41.485Z,16.20
2018-07-06T01:18:21.223Z,16.20
2018-07-06T01:21:01.005Z,16.20
2018-07-06T01:23:40.676Z,16.10
2018-07-06T01:26:20.542Z,16.10
2018-07-06T01:29:00.250Z,16.00
2018-07-06T01:31:40.165Z,15.90
2018-07-06T01:34:19.956Z,15.90
2018-07-06T01:36:59.774Z,15.80
2018-07-06T01:39:39.351Z,15.60
2018-07-06T01:42:19.042Z,15.50
2018-07-06T01:44:58.567Z,15.50
2018-07-06T01:47:38.105Z,15.50
2018-07-06T01:50:17.782Z,15.60
2018-07-06T01:52:57.399Z,15.60
2018-07-06T01:55:36.944Z,15.60
2018-07-06T01:58:16.724Z,15.70
2018-07-06T02:00:56.445Z,15.70
2018-07-06T02:03:36.151Z,15.70
2018-07-06T02:06:15.948Z,15.70
2018-07-06T02:08:55.755Z,15.60
2018-07-06T02:11:35.529Z,15.50
2018-07-06T02:14:15.065Z,15.40
2018-07-06T02:16:54.701Z,15.30
2018-07-06T02:19:34.436Z,15.30
2018-07-06T02:22:14.001Z,15.20
2018-07-06T02:24:53.583Z,15.20
2018-07-06T02:27:33.287Z,15.30
2018-07-06T02:30:13.181Z,15.30
2018-07-06T02:32:52.747Z,15.20
2018-07-06T02:35:32.549Z,15.20
2018-07-06T02:38:12.312Z,15.20
2018-07-06T02:40:52.236Z,15.10
2018-07-06T02:43:31.963Z,15.10
2018-07-06T02:46:11.615Z,15.10
2018-07-06T02:48:51.416Z,15.10
2018-07-06T02:51:31.163Z,15.10
2018-07-06T02:54:10.913Z,15.10
2018-07-06T02:56:50.671Z,15.10
2018-07-06T02:59:30.411Z,15.20
2018-07-06T03:02:10.074Z,15.20
2018-07-06T03:04:49.773Z,15.20
2018-07-06T03:07:29.567Z,15.30
2018-07-06T03:10:09.481Z,15.30
2018-07-06T03:12:49.865Z,15.30
2018-07-06T03:15:29.657Z,15.30
2018-07-06T03:18:09.347Z,15.30
2018-07-06T03:20:48.929Z,15.40
2018-07-06T03:23:28.682Z,15.50
2018-07-06T03:26:08.196Z,15.60
2018-07-06T03:28:47.993Z,15.70
2018-07-06T03:31:27.785Z,15.70
2018-07-06T03:34:07.601Z,15.80
2018-07-06T03:36:47.351Z,15.70
2018-07-06T03:39:27.082Z,15.80
2018-07-06T03:42:06.864Z,15.70
2018-07-06T03:44:46.540Z,15.60
2018-07-06T03:47:26.361Z,15.60
2018-07-06T03:50:06.146Z,15.50
2018-07-06T03:52:45.719Z,15.40
2018-07-06T03:55:25.245Z,15.40
2018-07-06T03:58:05.244Z,15.30
2018-07-06T04:00:44.997Z,15.30
2018-07-06T04:03:24.756Z,15.20
2018-07-06T04:06:04.543Z,15.30
2018-07-06T04:08:44.239Z,15.30
2018-07-06T04:11:24.081Z,15.30
2018-07-06T04:14:03.877Z,15.30
2018-07-06T04:16:43.563Z,15.20
2018-07-06T04:19:23.306Z,15.20
2018-07-06T04:22:02.983Z,15.10
2018-07-06T04:24:42.850Z,15.10
2018-07-06T04:27:22.549Z,15.10
2018-07-06T04:30:02.305Z,15.20
2018-07-06T04:32:42.070Z,15.30
2018-07-06T04:35:21.834Z,15.40
2018-07-06T04:38:01.647Z,15.40
2018-07-06T04:40:41.310Z,15.40
2018-07-06T04:43:21.068Z,15.50
2018-07-06T04:46:00.746Z,15.50
2018-07-06T04:48:40.446Z,15.50
2018-07-06T04:51:20.165Z,15.60
2018-07-06T04:53:59.778Z,15.60
2018-07-06T04:56:39.512Z,15.60
2018-07-06T04:59:19.209Z,15.70
2018-07-06T05:01:58.951Z,15.70
2018-07-06T05:04:38.731Z,15.70
2018-07-06T05:07:18.446Z,15.70
2018-07-06T05:09:58.281Z,15.70
2018-07-06T05:12:38.077Z,15.70
2018-07-06T05:17:51.652Z,15.80
2018-07-06T05:20:31.389Z,15.80
2018-07-06T05:23:11.114Z,15.80
2018-07-06T05:25:50.961Z,15.90
2018-07-06T05:28:30.718Z,15.80
2018-07-06T05:31:10.839Z,15.90
2018-07-06T05:33:50.499Z,15.90
2018-07-06T05:36:30.301Z,15.80
2018-07-06T05:39:09.908Z,15.80
2018-07-06T05:41:49.603Z,15.80
2018-07-06T05:44:29.311Z,15.90
2018-07-06T05:47:09.103Z,16.00
2018-07-06T05:49:48.806Z,16.00
2018-07-06T05:52:28.547Z,15.90
2018-07-06T05:55:08.137Z,15.90
2018-07-06T05:57:47.826Z,15.80
2018-07-06T06:00:27.640Z,15.80
2018-07-06T06:05:41.169Z,15.70
2018-07-06T06:08:08.529Z,15.80
2018-07-06T06:10:37.051Z,15.80
2018-07-06T06:13:05.647Z,15.90
2018-07-06T06:15:34.247Z,15.90
2018-07-06T06:18:02.784Z,15.90
2018-07-06T06:20:31.279Z,15.90
2018-07-06T06:22:59.787Z,15.90
2018-07-06T06:25:28.377Z,15.90
2018-07-06T06:27:56.891Z,15.90
2018-07-06T06:30:25.452Z,15.90
2018-07-06T06:32:54.120Z,16.00
2018-07-06T06:35:22.676Z,16.10
2018-07-06T06:37:51.318Z,16.10
2018-07-06T06:40:19.841Z,16.10
2018-07-06T06:42:48.441Z,16.10
2018-07-06T06:45:17.073Z,16.10
2018-07-06T06:47:46.168Z,16.30
2018-07-06T06:50:14.751Z,16.30
2018-07-06T06:52:43.334Z,16.30
2018-07-06T06:55:11.927Z,16.40
2018-07-06T06:57:40.501Z,16.40
2018-07-06T07:00:09.052Z,16.40
2018-07-06T07:02:37.680Z,16.40
2018-07-06T07:05:06.220Z,16.50
2018-07-06T07:07:34.985Z,16.50
2018-07-06T07:10:03.398Z,16.50
2018-07-06T07:12:31.958Z,16.50
2018-07-06T07:15:00.556Z,16.50
2018-07-06T07:17:29.107Z,16.50
2018-07-06T07:19:57.740Z,16.50
2018-07-06T07:22:26.275Z,16.50
2018-07-06T07:24:54.888Z,16.50
2018-07-06T07:27:23.436Z,16.50
2018-07-06T07:29:52.317Z,16.50
2018-07-06T07:34:49.070Z,16.50
2018-07-06T07:37:17.673Z,16.50
2018-07-06T07:39:46.277Z,16.50
2018-07-06T07:42:14.834Z,16.50
2018-07-06T07:44:43.421Z,16.60
2018-07-06T07:47:12.011Z,16.70
2018-07-06T07:49:40.519Z,16.70
2018-07-06T07:52:20.296Z,16.70
2018-07-06T07:54:54.236Z,16.70
2018-07-06T07:57:23.126Z,16.70
2018-07-06T07:59:53.646Z,16.60
2018-07-06T08:02:22.197Z,16.60
2018-07-06T08:04:50.855Z,16.60
2018-07-06T08:07:19.448Z,16.70
2018-07-06T08:09:48.133Z,16.80
2018-07-06T08:12:16.695Z,16.90
2018-07-06T08:14:45.335Z,16.90
2018-07-06T08:17:13.844Z,16.90
2018-07-06T08:19:42.388Z,16.90
2018-07-06T08:22:10.887Z,17.00
2018-07-06T08:27:07.673Z,17.10
2018-07-06T08:29:36.191Z,17.00
2018-07-06T08:32:04.722Z,17.00
2018-07-06T08:35:47.406Z,17.00
2018-07-06T08:38:15.951Z,17.00
2018-07-06T08:40:44.457Z,17.00
2018-07-06T08:43:13.029Z,17.00
2018-07-06T08:45:41.568Z,17.10
2018-07-06T08:48:10.094Z,17.10
2018-07-06T08:50:38.673Z,17.10
2018-07-06T08:53:07.240Z,17.10
2018-07-06T08:55:35.815Z,17.20
2018-07-06T08:58:04.404Z,17.20
2018-07-06T09:00:32.963Z,17.20
2018-07-06T09:03:01.535Z,17.20
2018-07-06T09:05:30.075Z,17.10
2018-07-06T09:07:58.535Z,17.10
2018-07-06T09:10:27.091Z,17.10
2018-07-06T09:15:23.842Z,17.10
2018-07-06T09:17:52.314Z,17.20
2018-07-06T09:20:20.847Z,17.20
2018-07-06T09:22:49.483Z,17.20
2018-07-06T09:25:18.101Z,17.20
2018-07-06T09:27:46.535Z,17.10
2018-07-06T09:30:15.067Z,17.10
2018-07-06T09:32:43.651Z,17.10
2018-07-06T09:35:12.208Z,17.10
2018-07-06T09:37:40.784Z,17.10
2018-07-06T09:40:09.885Z,17.10
2018-07-06T09:42:38.414Z,16.90
2018-07-06T09:45:06.889Z,16.80
2018-07-06T09:47:35.438Z,16.80
2018-07-06T09:50:04.017Z,16.80
2018-07-06T09:52:32.523Z,16.80
2018-07-06T09:55:01.076Z,16.80
2018-07-06T09:57:29.563Z,16.80
2018-07-06T09:59:58.057Z,16.80
2018-07-06T10:02:26.563Z,16.70
2018-07-06T10:04:55.151Z,16.70
2018-07-06T10:07:23.647Z,16.80
2018-07-06T10:09:52.216Z,16.80
2018-07-06T10:12:20.784Z,16.80
2018-07-06T10:14:49.351Z,16.90
2018-07-06T10:17:17.850Z,17.00
2018-07-06T10:19:46.404Z,16.90
2018-07-06T10:22:14.916Z,16.90
2018-07-06T10:24:43.461Z,16.80
2018-07-06T10:27:11.954Z,16.90
2018-07-06T10:30:18.722Z,17.00
2018-07-06T10:32:47.226Z,17.10
2018-07-06T10:35:15.780Z,17.10
2018-07-06T10:37:44.382Z,17.00
2018-07-06T10:40:12.995Z,17.00
2018-07-06T10:42:41.511Z,16.90
2018-07-06T10:45:10.051Z,17.00
2018-07-06T10:47:38.534Z,16.90
2018-07-06T10:50:07.072Z,16.80
2018-07-06T10:52:35.668Z,16.70
2018-07-06T10:55:04.257Z,16.70
2018-07-06T11:00:00.981Z,16.70
2018-07-06T11:02:29.519Z,16.80
2018-07-06T11:04:58.113Z,16.90
2018-07-06T11:07:26.616Z,16.90
2018-07-06T11:09:55.167Z,16.80
2018-07-06T11:12:23.771Z,16.60
2018-07-06T11:14:52.383Z,16.50
2018-07-06T11:17:20.903Z,16.50
2018-07-06T11:19:49.425Z,16.70
2018-07-06T11:22:17.994Z,16.60
2018-07-06T11:24:46.534Z,16.70
2018-07-06T11:27:15.051Z,16.60
2018-07-06T11:29:43.576Z,16.60
2018-07-06T11:32:12.248Z,16.70
2018-07-06T11:34:40.757Z,16.70
2018-07-06T11:37:09.262Z,16.70
2018-07-06T11:39:37.790Z,16.70
2018-07-06T11:42:06.419Z,16.70
2018-07-06T11:44:34.972Z,16.60
2018-07-06T11:47:03.498Z,16.70
2018-07-06T11:49:32.111Z,16.70
2018-07-06T11:52:00.664Z,16.70
2018-07-06T11:54:29.180Z,16.70
2018-07-06T11:56:57.690Z,16.80
2018-07-06T11:59:26.494Z,16.80
2018-07-06T12:01:55.325Z,16.80
2018-07-06T12:04:24.188Z,16.90
2018-07-06T12:06:52.729Z,17.00
2018-07-06T12:09:21.304Z,17.10
2018-07-06T12:11:52.772Z,17.10
2018-07-06T12:14:21.365Z,17.30
2018-07-06T12:16:51.356Z,17.30
2018-07-06T12:19:19.865Z,17.40
2018-07-06T12:21:49.317Z,17.40
2018-07-06T12:24:17.867Z,17.50
2018-07-06T12:26:46.443Z,17.50
2018-07-06T12:29:15.103Z,17.60
2018-07-06T12:31:43.588Z,17.60
2018-07-06T12:34:12.092Z,17.60
2018-07-06T12:36:40.686Z,17.70
2018-07-06T12:39:09.261Z,17.70
2018-07-06T12:41:37.867Z,17.80
2018-07-06T12:44:06.396Z,17.90
2018-07-06T12:46:34.936Z,17.90
2018-07-06T12:49:03.497Z,18.10
2018-07-06T12:51:32.026Z,18.10
2018-07-06T12:54:00.554Z,18.10
2018-07-06T12:56:29.312Z,18.10
2018-07-06T12:58:57.881Z,18.20
2018-07-06T13:01:26.439Z,18.20
2018-07-06T13:03:54.955Z,18.10
2018-07-06T13:06:23.478Z,18.10
2018-07-06T13:08:51.971Z,18.00
2018-07-06T13:11:20.544Z,17.90
2018-07-06T13:13:50.410Z,17.90
2018-07-06T13:16:19.013Z,17.80
2018-07-06T13:18:47.578Z,17.70
2018-07-06T13:21:16.107Z,17.70
2018-07-06T13:23:44.701Z,17.70
2018-07-06T13:26:13.288Z,17.60
2018-07-06T13:31:11.011Z,17.50
2018-07-06T13:33:41.488Z,17.50
2018-07-06T13:36:09.981Z,17.50
2018-07-06T13:38:40.083Z,17.50
2018-07-06T13:41:08.702Z,17.50
2018-07-06T13:43:37.229Z,17.60
2018-07-06T13:46:06.903Z,17.60
2018-07-06T13:48:35.548Z,17.60
2018-07-06T13:51:05.042Z,17.70
2018-07-06T13:53:33.550Z,17.70
2018-07-06T13:56:03.186Z,17.60
2018-07-06T13:58:31.819Z,17.60
2018-07-06T14:01:01.959Z,17.60
2018-07-06T14:03:32.039Z,17.60
2018-07-06T14:06:00.637Z,17.60
2018-07-06T14:08:30.402Z,17.60
2018-07-06T14:10:58.964Z,17.60
2018-07-06T14:13:27.509Z,17.60
2018-07-06T14:15:57.648Z,17.60
2018-07-06T14:18:27.860Z,17.80
2018-07-06T14:20:58.478Z,17.90
2018-07-06T14:23:27.176Z,17.80
2018-07-06T14:25:55.910Z,17.80
2018-07-06T14:28:24.501Z,17.80
2018-07-06T14:30:54.414Z,17.80
2018-07-06T14:33:24.523Z,17.80
2018-07-06T14:35:53.097Z,17.80
2018-07-06T14:38:22.418Z,17.80
2018-07-06T14:40:51.037Z,17.80
2018-07-06T14:43:20.701Z,17.90
2018-07-06T14:45:49.355Z,17.80
2018-07-06T14:48:21.153Z,17.70
2018-07-06T14:50:49.906Z,17.80
2018-07-06T14:53:20.449Z,17.80
2018-07-06T14:58:17.251Z,17.90
2018-07-06T15:00:45.755Z,17.90
2018-07-06T15:03:14.323Z,18.00
2018-07-06T15:05:42.899Z,18.10
2018-07-06T15:08:11.455Z,18.10
2018-07-06T15:10:40.074Z,18.10
2018-07-06T15:13:08.527Z,18.20
2018-07-06T15:15:37.121Z,18.20
2018-07-06T15:18:05.861Z,18.30
2018-07-06T15:20:34.423Z,18.30
2018-07-06T15:23:02.998Z,18.40
2018-07-06T15:25:31.549Z,18.30
2018-07-06T15:28:00.069Z,18.30
2018-07-06T15:30:28.645Z,18.40
2018-07-06T15:32:57.190Z,18.40
2018-07-06T15:35:25.738Z,18.40
2018-07-06T15:37:54.292Z,18.50
2018-07-06T15:40:22.912Z,18.40
2018-07-06T15:42:51.505Z,18.40
2018-07-06T15:45:20.061Z,18.40
2018-07-06T15:47:48.594Z,18.50
2018-07-06T15:50:17.201Z,18.50
2018-07-06T15:52:45.711Z,18.40
2018-07-06T15:55:14.380Z,18.40
2018-07-06T15:57:42.980Z,18.40
2018-07-06T16:02:39.733Z,18.20
2018-07-06T16:05:09.096Z,18.30
2018-07-06T16:07:37.635Z,18.30
2018-07-06T16:10:06.252Z,18.40
2018-07-06T16:12:35.176Z,18.40
2018-07-06T16:15:03.809Z,18.40
2018-07-06T16:17:32.308Z,18.30
2018-07-06T16:20:01.448Z,18.20
2018-07-06T16:22:29.977Z,18.20
2018-07-06T16:24:58.501Z,18.20
2018-07-06T16:27:26.999Z,18.20
2018-07-06T16:29:55.546Z,18.20
2018-07-06T16:32:24.102Z,18.20
2018-07-06T16:34:52.599Z,18.10
2018-07-06T16:37:21.136Z,18.00
2018-07-06T16:39:49.669Z,18.00
2018-07-06T16:42:18.261Z,17.90
2018-07-06T16:44:46.833Z,17.90
2018-07-06T16:47:15.442Z,17.90
2018-07-06T16:49:44.111Z,17.80
2018-07-06T16:52:12.625Z,17.70
2018-07-06T16:54:41.167Z,17.60
2018-07-06T16:57:09.792Z,17.60
2018-07-06T16:59:38.371Z,17.60
2018-07-06T17:02:07.099Z,17.60
2018-07-06T17:04:35.834Z,17.70
2018-07-06T17:07:04.843Z,17.80
2018-07-06T17:09:33.812Z,17.80
2018-07-06T17:12:02.841Z,17.80
2018-07-06T17:14:32.656Z,17.80
2018-07-06T17:17:01.239Z,17.90
2018-07-06T17:19:29.837Z,17.80
2018-07-06T17:21:58.333Z,17.80
2018-07-06T17:24:26.891Z,17.80
2018-07-06T17:26:55.401Z,17.80
2018-07-06T17:29:23.977Z,17.80
2018-07-06T17:31:52.561Z,17.80
2018-07-06T17:34:21.102Z,17.90
2018-07-06T17:36:49.752Z,17.90
2018-07-06T17:39:18.330Z,17.80
2018-07-06T17:41:46.885Z,17.80
2018-07-06T17:44:15.454Z,17.80
2018-07-06T17:46:44.012Z,17.80
2018-07-06T17:49:12.590Z,17.80
2018-07-06T17:51:41.114Z,17.80
2018-07-06T17:54:09.894Z,17.80
2018-07-06T17:59:06.643Z,17.50
2018-07-06T18:01:35.633Z,17.50
2018-07-06T18:04:04.222Z,17.40
2018-07-06T18:06:32.739Z,17.30
2018-07-06T18:09:01.383Z,17.20
2018-07-06T18:11:29.879Z,17.10
2018-07-06T18:13:58.492Z,17.10
2018-07-06T18:16:27.037Z,17.00
2018-07-06T18:18:55.665Z,16.90
2018-07-06T18:21:24.239Z,16.80
2018-07-06T18:23:53.231Z,16.70
2018-07-06T18:26:21.902Z,16.70
2018-07-06T18:28:50.524Z,16.70
2018-07-06T18:31:19.078Z,16.70
2018-07-06T18:33:47.625Z,16.80
2018-07-06T18:36:16.203Z,16.80
2018-07-06T18:38:44.744Z,16.80
2018-07-06T18:41:13.341Z,16.80
2018-07-06T18:43:41.882Z,16.70
2018-07-06T18:46:10.440Z,16.50
2018-07-06T18:48:38.962Z,16.40
2018-07-06T18:51:07.605Z,16.30
2018-07-06T18:53:36.201Z,16.20
2018-07-06T18:56:04.759Z,16.10
2018-07-06T18:58:33.306Z,16.00
2018-07-06T19:01:01.851Z,15.90
2018-07-06T19:03:30.375Z,15.70
2018-07-06T19:06:00.032Z,15.60
2018-07-06T19:08:28.595Z,15.60
2018-07-06T19:10:57.270Z,15.50
2018-07-06T19:13:25.837Z,15.40
2018-07-06T19:15:54.355Z,15.40
2018-07-06T19:18:22.887Z,15.30
2018-07-06T19:20:51.500Z,15.20
2018-07-06T19:23:20.050Z,15.20
2018-07-06T19:25:48.736Z,15.20
2018-07-06T19:30:45.469Z,15.10
2018-07-06T19:33:14.822Z,15.00
2018-07-06T19:35:43.338Z,15.00
2018-07-06T19:38:11.909Z,15.00
2018-07-06T19:40:40.477Z,15.00
2018-07-06T19:43:09.020Z,14.90
2018-07-06T19:45:37.583Z,14.90
2018-07-06T19:48:06.110Z,14.80
2018-07-06T19:50:34.658Z,14.80
2018-07-06T19:53:03.255Z,14.70
2018-07-06T19:55:31.834Z,14.60
2018-07-06T19:58:00.387Z,14.60
2018-07-06T20:00:28.959Z,14.60
2018-07-06T20:02:57.477Z,14.60
2018-07-06T20:05:25.991Z,14.60
2018-07-06T20:07:54.755Z,14.50
2018-07-06T20:10:23.317Z,14.50
2018-07-06T20:12:51.928Z,14.50
2018-07-06T20:15:20.487Z,14.50
2018-07-06T20:17:49.006Z,14.50
2018-07-06T20:20:17.598Z,14.50
2018-07-06T20:22:46.362Z,14.40
2018-07-06T20:25:14.902Z,14.40
2018-07-06T20:27:43.410Z,14.30
2018-07-06T20:30:11.971Z,14.30
2018-07-06T20:32:40.812Z,14.40
2018-07-06T20:35:09.447Z,14.50
2018-07-06T20:37:37.999Z,14.70
2018-07-06T20:40:06.631Z,14.90
2018-07-06T20:42:35.205Z,15.10
2018-07-06T20:45:03.783Z,15.20
2018-07-06T20:47:32.347Z,15.30
2018-07-06T20:50:00.901Z,15.40
2018-07-06T20:52:29.496Z,15.30
2018-07-06T20:54:58.037Z,15.30
2018-07-06T20:57:26.498Z,15.20
2018-07-06T20:59:55.056Z,15.20
2018-07-06T21:02:23.632Z,15.20
2018-07-06T21:04:52.175Z,15.10
2018-07-06T21:07:20.679Z,15.00
2018-07-06T21:09:49.258Z,14.90
2018-07-06T21:12:17.817Z,14.80
2018-07-06T21:17:14.594Z,14.60
2018-07-06T21:19:43.124Z,14.60
2018-07-06T21:22:11.725Z,14.70
2018-07-06T21:24:40.218Z,14.70
2018-07-06T21:27:08.771Z,14.70
2018-07-06T21:29:37.321Z,14.70
2018-07-06T21:32:05.931Z,14.60
2018-07-06T21:34:34.455Z,14.70
2018-07-06T21:37:02.983Z,14.70
2018-07-06T21:39:31.538Z,14.80
2018-07-06T21:42:00.180Z,14.80
2018-07-06T21:44:28.760Z,14.80
2018-07-06T21:46:57.398Z,14.90
2018-07-06T21:49:25.961Z,15.00
2018-07-06T21:51:54.494Z,15.00
2018-07-06T21:54:23.066Z,15.00
2018-07-06T21:56:51.616Z,14.90
2018-07-06T21:59:20.187Z,14.90
2018-07-06T22:01:48.735Z,14.80
2018-07-06T22:04:17.295Z,14.90
2018-07-06T22:06:45.858Z,15.00
2018-07-06T22:09:14.428Z,15.10
2018-07-06T22:11:42.965Z,15.20
2018-07-06T22:14:11.491Z,15.40
2018-07-06T22:16:40.076Z,15.40
2018-07-06T22:19:08.626Z,15.40
2018-07-06T22:21:37.185Z,15.50
2018-07-06T22:24:05.738Z,15.60
2018-07-06T22:26:34.270Z,15.60
2018-07-06T22:29:02.768Z,15.50
2018-07-06T22:31:31.320Z,15.60
2018-07-06T22:33:59.899Z,15.60
2018-07-06T22:36:28.412Z,15.60
2018-07-06T22:38:56.977Z,15.60
2018-07-06T22:41:25.502Z,15.50
2018-07-06T22:43:54.045Z,15.50
2018-07-06T22:46:22.616Z,15.50
2018-07-06T22:48:51.168Z,15.50
2018-07-06T22:51:19.683Z,15.50
2018-07-06T22:53:48.227Z,15.50
2018-07-06T22:56:16.771Z,15.40
2018-07-06T22:58:45.375Z,15.40
2018-07-06T23:01:13.996Z,15.30
2018-07-06T23:03:42.540Z,15.30
2018-07-06T23:06:11.063Z,15.40
2018-07-06T23:08:39.716Z,15.30
2018-07-06T23:11:08.239Z,15.30
2018-07-06T23:13:36.853Z,15.30
2018-07-06T23:16:05.447Z,15.40
2018-07-06T23:18:33.941Z,15.40
2018-07-06T23:21:02.494Z,15.40
2018-07-06T23:23:30.992Z,15.40
2018-07-06T23:25:59.521Z,15.40
2018-07-06T23:28:28.092Z,15.50
2018-07-06T23:30:56.607Z,15.60
2018-07-06T23:33:25.188Z,15.60
2018-07-06T23:35:53.756Z,15.60
2018-07-06T23:38:22.348Z,15.50
2018-07-06T23:40:50.889Z,15.40
2018-07-06T23:43:19.477Z,15.30
2018-07-06T23:45:48.041Z,15.20
2018-07-06T23:48:16.569Z,15.00
2018-07-06T23:50:45.091Z,14.90
2018-07-06T23:53:13.642Z,14.80
2018-07-06T23:55:42.231Z,14.70
2018-07-06T23:58:10.766Z,14.60
